Time;durP1;ratioP1;P1;durP2;ratioP2;P2;SDS_P1;SDS_P2;PMS_P1;PMS_P2;Temp;Humidity;BMP_temperature;BMP_pressure;BME280_temperature;BME280_humidity;BME280_pressure;Samples;Min_cycle;Max_cycle;Signal;HPM_P1;HPM_P2
2021/08/19 00:04:18;;;;;;;3.80;2.15;;;16.10;99.90;;;;;;20373827;28;20063;-80
2021/08/19 00:14:19;;;;;;;3.70;1.80;;;16.00;99.90;;;;;;20393132;28;20047;-79
2021/08/19 00:24:20;;;;;;;4.05;1.95;;;15.90;99.90;;;;;;20419377;28;20063;-80
2021/08/19 00:34:21;;;;;;;4.28;2.05;;;15.90;99.90;;;;;;20419657;28;20122;-80
2021/08/19 00:44:22;;;;;;;3.53;1.60;;;15.80;99.90;;;;;;20402134;28;20044;-80
2021/08/19 00:54:26;;;;;;;4.20;1.38;;;16.00;99.90;;;;;;20444993;28;20065;-80
2021/08/19 01:04:32;;;;;;;5.35;2.97;;;16.10;99.90;;;;;;20380301;28;20063;-79
2021/08/19 01:14:33;;;;;;;7.40;2.53;;;16.20;99.90;;;;;;20362128;28;20042;-79
2021/08/19 01:24:34;;;;;;;8.15;3.67;;;16.30;99.90;;;;;;20401536;28;21634;-79
2021/08/19 01:34:35;;;;;;;7.55;3.05;;;16.30;99.90;;;;;;20371566;28;20066;-78
2021/08/19 01:44:36;;;;;;;9.55;3.08;;;16.40;99.90;;;;;;20379798;28;20048;-79
2021/08/19 01:54:37;;;;;;;7.20;2.20;;;16.40;99.90;;;;;;20396378;28;20393;-79
2021/08/19 02:04:38;;;;;;;5.70;2.22;;;16.40;99.90;;;;;;20385546;28;20048;-78
2021/08/19 02:14:40;;;;;;;9.85;2.78;;;16.40;99.90;;;;;;20391427;28;20049;-79
2021/08/19 02:24:41;;;;;;;4.97;2.60;;;16.30;99.90;;;;;;20419700;28;20065;-79
2021/08/19 02:34:42;;;;;;;7.43;3.65;;;16.30;99.90;;;;;;20401970;28;20043;-79
2021/08/19 02:44:43;;;;;;;4.28;2.35;;;16.30;99.90;;;;;;20422208;28;20051;-79
2021/08/19 02:54:45;;;;;;;9.25;3.38;;;16.30;99.90;;;;;;20439014;28;20034;-79
2021/08/19 03:04:46;;;;;;;7.82;3.10;;;16.30;99.90;;;;;;20388826;28;20047;-80
2021/08/19 03:14:47;;;;;;;7.57;2.92;;;16.40;99.90;;;;;;20351029;28;20036;-79
2021/08/19 03:24:49;;;;;;;7.05;2.40;;;16.50;99.90;;;;;;20423783;28;20049;-80
2021/08/19 03:34:50;;;;;;;5.30;2.55;;;16.60;99.90;;;;;;20444714;28;20039;-79
2021/08/19 03:44:51;;;;;;;8.07;3.33;;;16.70;99.90;;;;;;20378787;28;20051;-80
2021/08/19 03:54:52;;;;;;;6.15;2.13;;;16.70;99.90;;;;;;20349765;28;20044;-79
2021/08/19 04:04:53;;;;;;;5.18;2.17;;;16.80;99.90;;;;;;20396173;28;20052;-80
2021/08/19 04:14:54;;;;;;;5.90;2.42;;;16.80;99.90;;;;;;20437522;28;20427;-80
2021/08/19 04:24:55;;;;;;;8.18;2.70;;;16.80;99.90;;;;;;20356462;28;20055;-80
2021/08/19 04:34:56;;;;;;;6.10;2.28;;;16.80;99.90;;;;;;20385914;28;20042;-79
2021/08/19 04:44:57;;;;;;;7.18;2.38;;;16.80;99.90;;;;;;20381383;28;20120;-79
2021/08/19 04:54:58;;;;;;;5.85;2.40;;;16.80;99.90;;;;;;20388708;28;20047;-79
2021/08/19 05:04:59;;;;;;;5.88;2.97;;;16.90;99.90;;;;;;20403419;28;21127;-79
2021/08/19 05:15:03;;;;;;;6.95;3.63;;;16.90;99.90;;;;;;20418955;28;20035;-79
2021/08/19 05:25:05;;;;;;;7.38;3.33;;;16.90;99.90;;;;;;20361873;28;20057;-79
2021/08/19 05:35:07;;;;;;;7.47;2.65;;;16.90;99.90;;;;;;20392722;28;20048;-78
2021/08/19 05:45:09;;;;;;;6.63;2.38;;;16.90;99.90;;;;;;20410730;28;20483;-78
2021/08/19 05:55:10;;;;;;;8.63;2.95;;;16.90;99.90;;;;;;20382059;28;20042;-79
2021/08/19 06:05:11;;;;;;;6.07;2.38;;;17.00;99.90;;;;;;20432338;28;20151;-79
2021/08/19 06:15:13;;;;;;;5.15;2.53;;;17.00;99.90;;;;;;20417430;28;20034;-79
2021/08/19 06:25:14;;;;;;;8.57;2.00;;;17.10;99.90;;;;;;20426069;28;20439;-79
2021/08/19 06:35:15;;;;;;;11.30;2.22;;;17.20;99.90;;;;;;20359078;28;20041;-79
2021/08/19 06:45:16;;;;;;;5.00;1.70;;;17.20;99.90;;;;;;20410746;28;20491;-79
2021/08/19 06:55:17;;;;;;;4.05;1.65;;;17.30;99.90;;;;;;20402127;28;20038;-79
2021/08/19 07:05:19;;;;;;;4.05;1.77;;;17.40;99.90;;;;;;20401161;28;20043;-79
2021/08/19 07:15:21;;;;;;;5.43;1.90;;;17.40;99.90;;;;;;20380199;28;20082;-79
2021/08/19 07:25:22;;;;;;;6.43;2.58;;;17.50;99.90;;;;;;20403038;28;20055;-79
2021/08/19 07:35:23;;;;;;;4.63;2.13;;;17.50;99.90;;;;;;20417723;28;20043;-79
2021/08/19 07:45:26;;;;;;;6.68;2.42;;;17.50;99.90;;;;;;20415702;28;20055;-79
2021/08/19 07:55:28;;;;;;;8.13;3.05;;;17.60;99.90;;;;;;20380086;28;20069;-79
2021/08/19 08:05:31;;;;;;;4.60;2.20;;;17.70;99.90;;;;;;20424079;28;20053;-80
2021/08/19 08:15:33;;;;;;;5.75;2.85;;;17.80;99.90;;;;;;20411988;28;20482;-79
2021/08/19 08:25:35;;;;;;;6.10;2.25;;;17.70;99.90;;;;;;20433968;28;20073;-79
2021/08/19 08:35:39;;;;;;;6.50;2.50;;;17.70;99.90;;;;;;20422103;28;20471;-80
2021/08/19 08:45:41;;;;;;;7.32;3.30;;;17.80;99.90;;;;;;20450511;28;20047;-80
2021/08/19 08:55:43;;;;;;;6.55;2.53;;;17.70;99.90;;;;;;20476362;28;20476;-79
2021/08/19 09:05:47;;;;;;;11.75;3.05;;;17.80;99.90;;;;;;20363611;28;20164;-80
2021/08/19 09:15:48;;;;;;;8.18;2.95;;;17.80;99.90;;;;;;20397457;28;20032;-79
2021/08/19 09:25:49;;;;;;;9.40;3.67;;;17.80;99.90;;;;;;20376873;28;20537;-79
2021/08/19 09:35:52;;;;;;;6.28;2.90;;;17.80;99.90;;;;;;20390827;28;20045;-79
2021/08/19 09:45:53;;;;;;;10.00;2.60;;;17.80;99.90;;;;;;20350253;28;20049;-79
2021/08/19 09:55:54;;;;;;;6.22;2.25;;;17.80;99.90;;;;;;20312730;28;20047;-80
2021/08/19 10:05:56;;;;;;;6.68;2.53;;;18.00;99.90;;;;;;20332822;28;20044;-79
2021/08/19 10:15:59;;;;;;;4.80;1.88;;;18.10;99.90;;;;;;20334657;28;20040;-79
2021/08/19 10:26:05;;;;;;;6.15;2.63;;;18.10;99.90;;;;;;20354401;28;20048;-80
2021/08/19 10:36:09;;;;;;;5.65;2.25;;;18.10;99.90;;;;;;20330861;28;20041;-80
2021/08/19 10:46:16;;;;;;;5.90;2.78;;;18.00;99.90;;;;;;20436517;28;20047;-79
2021/08/19 10:56:41;;;;;;;5.97;2.85;;;18.30;99.90;;;;;;20429467;28;20047;-81
2021/08/19 11:06:53;;;;;;;8.50;3.03;;;18.40;99.90;;;;;;20446348;28;20047;-79
2021/08/19 11:17:01;;;;;;;3.70;1.90;;;18.70;99.90;;;;;;20425946;28;20095;-79
2021/08/19 11:27:13;;;;;;;5.50;2.60;;;18.60;99.90;;;;;;20477493;28;20046;-79
2021/08/19 11:37:33;;;;;;;5.45;2.30;;;18.60;99.90;;;;;;20394428;28;20512;-79
2021/08/19 11:47:34;;;;;;;5.00;2.03;;;18.50;99.90;;;;;;20427137;28;20350;-79
2021/08/19 11:57:35;;;;;;;5.78;2.55;;;18.20;99.90;;;;;;20426404;28;20044;-79
2021/08/19 12:07:41;;;;;;;12.88;3.47;;;18.10;99.90;;;;;;20439672;28;20062;-79
2021/08/19 12:17:42;;;;;;;6.95;2.78;;;18.00;99.90;;;;;;20441563;28;20039;-79
2021/08/19 12:27:43;;;;;;;5.82;2.45;;;17.60;99.90;;;;;;20413471;28;20039;-80
2021/08/19 12:37:59;;;;;;;7.18;3.13;;;17.30;99.90;;;;;;20386172;28;20043;-79
2021/08/19 12:48:04;;;;;;;8.35;2.65;;;17.10;99.90;;;;;;20487992;28;20368;-79
2021/08/19 12:58:06;;;;;;;8.32;2.75;;;17.00;99.90;;;;;;20379718;28;20053;-79
2021/08/19 13:08:07;;;;;;;5.85;2.45;;;17.10;99.90;;;;;;20392541;28;20526;-79
2021/08/19 13:18:08;;;;;;;7.60;2.85;;;17.30;99.90;;;;;;20410347;28;20044;-79
2021/08/19 13:28:11;;;;;;;6.43;3.08;;;17.40;99.90;;;;;;20416954;28;20380;-79
2021/08/19 13:38:12;;;;;;;5.32;2.35;;;17.60;99.90;;;;;;20411492;28;20050;-79
2021/08/19 13:48:13;;;;;;;5.20;2.28;;;17.90;99.90;;;;;;20432302;28;20374;-78
2021/08/19 13:58:14;;;;;;;4.22;2.22;;;17.80;99.90;;;;;;20439294;28;20048;-79
2021/08/19 14:08:15;;;;;;;4.50;2.03;;;17.50;99.90;;;;;;20457995;28;20068;-78
2021/08/19 14:18:16;;;;;;;11.85;3.63;;;17.20;99.90;;;;;;20425879;28;20041;-78
2021/08/19 14:28:17;;;;;;;7.07;3.00;;;16.90;99.90;;;;;;20463452;28;20047;-78
2021/08/19 14:38:20;;;;;;;8.43;3.45;;;16.80;99.90;;;;;;20436528;28;20108;-80
2021/08/19 14:48:22;;;;;;;8.95;3.30;;;16.70;99.90;;;;;;20389870;28;20042;-79
2021/08/19 14:58:23;;;;;;;11.98;4.30;;;16.80;99.90;;;;;;20376619;28;20388;-78
2021/08/19 15:08:24;;;;;;;6.32;3.03;;;16.80;99.90;;;;;;20389870;28;20068;-79
2021/08/19 15:18:31;;;;;;;10.85;5.15;;;16.80;99.90;;;;;;20376504;28;20034;-81
2021/08/19 15:28:39;;;;;;;9.10;3.80;;;16.80;99.90;;;;;;20290874;28;20059;-79
2021/08/19 15:38:41;;;;;;;8.80;2.88;;;16.90;99.90;;;;;;20348318;28;20125;-79
2021/08/19 15:48:43;;;;;;;6.20;3.35;;;16.90;99.90;;;;;;20417887;28;20060;-79
2021/08/19 15:58:44;;;;;;;6.45;2.92;;;16.90;99.90;;;;;;20371319;28;20062;-79
2021/08/19 16:08:45;;;;;;;5.82;2.90;;;16.80;99.90;;;;;;20406382;28;20050;-82
2021/08/19 16:18:46;;;;;;;7.13;2.17;;;16.80;99.90;;;;;;20384716;28;20569;-83
2021/08/19 16:28:48;;;;;;;12.68;2.70;;;16.70;99.90;;;;;;20320493;28;20049;-78
2021/08/19 16:38:49;;;;;;;5.72;2.58;;;16.50;99.90;;;;;;20345021;28;20044;-80
2021/08/19 16:48:50;;;;;;;6.07;3.47;;;16.50;99.90;;;;;;20456428;28;20040;-80
2021/08/19 16:58:52;;;;;;;6.00;2.72;;;16.60;99.90;;;;;;20357173;28;20043;-80
2021/08/19 17:08:53;;;;;;;6.47;3.10;;;16.70;99.90;;;;;;20364734;28;20043;-80
2021/08/19 17:18:54;;;;;;;4.50;2.28;;;16.60;99.90;;;;;;20357062;28;20127;-81
2021/08/19 17:28:55;;;;;;;17.83;3.40;;;16.60;99.90;;;;;;20368687;28;20081;-80
2021/08/19 17:38:57;;;;;;;5.85;2.88;;;16.60;99.90;;;;;;20398442;28;20062;-80
2021/08/19 17:48:58;;;;;;;6.60;2.95;;;16.50;99.90;;;;;;20406644;28;20049;-80
2021/08/19 17:58:59;;;;;;;6.25;3.67;;;16.50;99.90;;;;;;20365035;28;20488;-79
2021/08/19 18:09:00;;;;;;;5.93;2.53;;;16.50;99.90;;;;;;20399372;28;20035;-79
2021/08/19 18:19:01;;;;;;;7.63;2.83;;;16.40;99.90;;;;;;20347749;28;20056;-80
2021/08/19 18:29:03;;;;;;;6.80;2.40;;;16.40;99.90;;;;;;20351938;28;20038;-79
2021/08/19 18:39:05;;;;;;;4.80;1.98;;;16.30;99.90;;;;;;20381271;28;20038;-79
2021/08/19 18:49:06;;;;;;;7.25;2.15;;;16.30;99.90;;;;;;20401095;28;20499;-79
2021/08/19 18:59:07;;;;;;;6.97;2.85;;;16.20;99.90;;;;;;20374396;28;20054;-79
2021/08/19 19:09:08;;;;;;;7.60;2.08;;;16.10;99.90;;;;;;20405003;28;20038;-79
2021/08/19 19:19:10;;;;;;;15.32;2.70;;;16.10;99.90;;;;;;20363144;28;20519;-79
2021/08/19 19:29:11;;;;;;;8.10;2.33;;;16.10;99.90;;;;;;20384398;28;20042;-79
2021/08/19 19:39:12;;;;;;;3.38;1.52;;;16.10;99.90;;;;;;20384216;28;20046;-79
2021/08/19 19:49:13;;;;;;;4.03;2.00;;;16.00;99.90;;;;;;20457840;28;20060;-80
2021/08/19 19:59:14;;;;;;;4.97;2.83;;;15.90;99.90;;;;;;20463577;28;20046;-79
2021/08/19 20:09:16;;;;;;;5.70;2.78;;;15.80;99.90;;;;;;20439358;28;21417;-79
2021/08/19 20:19:17;;;;;;;6.97;2.95;;;15.80;99.90;;;;;;20392572;28;20040;-80
2021/08/19 20:29:19;;;;;;;7.40;3.10;;;15.80;99.90;;;;;;20381742;28;20052;-79
2021/08/19 20:39:22;;;;;;;8.02;3.70;;;15.80;99.90;;;;;;20383636;28;20048;-79
2021/08/19 20:49:23;;;;;;;4.82;2.63;;;15.90;99.90;;;;;;20369962;28;20050;-79
2021/08/19 20:59:24;;;;;;;6.40;2.70;;;15.80;99.90;;;;;;20353777;28;20055;-79
2021/08/19 21:09:25;;;;;;;6.25;3.03;;;15.80;99.90;;;;;;20367327;28;20039;-80
2021/08/19 21:19:26;;;;;;;6.60;3.15;;;15.80;99.90;;;;;;20376029;28;20035;-80
2021/08/19 21:29:27;;;;;;;7.57;3.50;;;15.80;99.90;;;;;;20411639;28;20079;-79
2021/08/19 21:39:28;;;;;;;7.40;2.63;;;15.80;99.90;;;;;;20355478;28;20040;-80
2021/08/19 21:49:32;;;;;;;6.18;2.90;;;15.70;99.90;;;;;;20396299;28;20039;-80
2021/08/19 21:59:33;;;;;;;7.20;3.17;;;15.70;99.90;;;;;;20384281;28;20044;-80
2021/08/19 22:09:34;;;;;;;7.53;2.78;;;15.60;99.90;;;;;;20364918;28;20044;-79
2021/08/19 22:19:35;;;;;;;4.47;2.13;;;15.60;99.90;;;;;;20413698;28;20447;-79
2021/08/19 22:29:41;;;;;;;7.63;3.15;;;15.50;99.90;;;;;;20370872;28;20388;-80
2021/08/19 22:39:43;;;;;;;6.38;2.35;;;15.40;99.90;;;;;;20365122;28;20367;-80
2021/08/19 22:49:46;;;;;;;6.95;3.33;;;15.20;99.90;;;;;;20387910;28;20581;-80
2021/08/19 22:59:47;;;;;;;6.38;2.80;;;15.00;99.90;;;;;;20372689;28;20040;-80
2021/08/19 23:09:48;;;;;;;7.57;2.67;;;14.80;99.90;;;;;;20409979;28;20131;-80
2021/08/19 23:19:49;;;;;;;6.20;3.30;;;14.60;99.90;;;;;;20336377;28;20068;-83
2021/08/19 23:29:50;;;;;;;8.80;3.80;;;14.50;99.90;;;;;;20395101;28;20052;-82
2021/08/19 23:39:51;;;;;;;15.70;4.10;;;14.50;99.90;;;;;;20357806;28;20392;-82
2021/08/19 23:49:57;;;;;;;6.97;3.45;;;14.50;99.90;;;;;;20413713;28;20040;-83
